sensor_id;sensor_type;location;lat;lon;timestamp;pressure;altitude;pressure_sealevel;temperature;humidity
52319;BME280;38258;51.148;14.068;2022-08-19T00:01:20;97462.09;;;19.67;100.00
52319;BME280;38258;51.148;14.068;2022-08-19T00:03:47;97466.69;;;19.65;100.00
52319;BME280;38258;51.148;14.068;2022-08-19T00:06:15;97479.47;;;19.60;100.00
52319;BME280;38258;51.148;14.068;2022-08-19T00:08:42;97487.44;;;19.60;100.00
52319;BME280;38258;51.148;14.068;2022-08-19T00:11:12;97491.66;;;19.51;100.00
52319;BME280;38258;51.148;14.068;2022-08-19T00:13:39;97483.44;;;19.66;100.00
52319;BME280;38258;51.148;14.068;2022-08-19T00:16:06;97476.56;;;19.63;100.00
52319;BME280;38258;51.148;14.068;2022-08-19T00:18:33;97472.94;;;19.64;100.00
52319;BME280;38258;51.148;14.068;2022-08-19T00:21:00;97471.00;;;19.66;100.00
52319;BME280;38258;51.148;14.068;2022-08-19T00:23:27;97470.31;;;19.64;100.00
52319;BME280;38258;51.148;14.068;2022-08-19T00:25:54;97468.72;;;19.61;100.00
52319;BME280;38258;51.148;14.068;2022-08-19T00:28:22;97472.25;;;19.62;100.00
52319;BME280;38258;51.148;14.068;2022-08-19T00:30:49;97486.94;;;19.55;100.00
52319;BME280;38258;51.148;14.068;2022-08-19T00:33:17;97486.94;;;19.55;100.00
52319;BME280;38258;51.148;14.068;2022-08-19T00:35:43;97482.13;;;19.48;100.00
52319;BME280;38258;51.148;14.068;2022-08-19T00:38:10;97486.38;;;19.51;100.00
52319;BME280;38258;51.148;14.068;2022-08-19T00:40:37;97498.53;;;19.42;100.00
52319;BME280;38258;51.148;14.068;2022-08-19T00:43:08;97494.91;;;19.43;100.00
52319;BME280;38258;51.148;14.068;2022-08-19T00:45:36;97497.09;;;19.38;100.00
52319;BME280;38258;51.148;14.068;2022-08-19T00:48:03;97502.84;;;19.43;100.00
52319;BME280;38258;51.148;14.068;2022-08-19T00:50:31;97502.84;;;19.43;100.00
52319;BME280;38258;51.148;14.068;2022-08-19T00:52:58;97503.34;;;19.48;100.00
52319;BME280;38258;51.148;14.068;2022-08-19T00:55:26;97497.56;;;19.43;100.00
52319;BME280;38258;51.148;14.068;2022-08-19T00:57:56;97492.75;;;19.37;100.00
52319;BME280;38258;51.148;14.068;2022-08-19T01:00:26;97499.00;;;19.36;100.00
52319;BME280;38258;51.148;14.068;2022-08-19T01:02:55;97479.84;;;19.21;100.00
52319;BME280;38258;51.148;14.068;2022-08-19T01:05:24;97491.56;;;19.30;100.00
52319;BME280;38258;51.148;14.068;2022-08-19T01:07:53;97495.63;;;19.23;100.00
52319;BME280;38258;51.148;14.068;2022-08-19T01:10:23;97499.00;;;19.13;100.00
52319;BME280;38258;51.148;14.068;2022-08-19T01:12:51;97484.69;;;19.16;100.00
52319;BME280;38258;51.148;14.068;2022-08-19T01:15:21;97476.97;;;19.01;100.00
52319;BME280;38258;51.148;14.068;2022-08-19T01:17:50;97497.09;;;19.04;100.00
52319;BME280;38258;51.148;14.068;2022-08-19T01:20:21;97495.88;;;19.08;100.00
52319;BME280;38258;51.148;14.068;2022-08-19T01:22:51;97495.63;;;19.11;100.00
52319;BME280;38258;51.148;14.068;2022-08-19T01:25:22;97499.72;;;19.04;100.00
52319;BME280;38258;51.148;14.068;2022-08-19T01:27:50;97489.00;;;19.05;100.00
52319;BME280;38258;51.148;14.068;2022-08-19T01:30:19;97494.56;;;19.14;100.00
52319;BME280;38258;51.148;14.068;2022-08-19T01:32:47;97499.25;;;19.10;100.00
52319;BME280;38258;51.148;14.068;2022-08-19T01:35:14;97510.47;;;19.14;100.00
52319;BME280;38258;51.148;14.068;2022-08-19T01:37:46;97483.13;;;19.02;100.00
52319;BME280;38258;51.148;14.068;2022-08-19T01:40:14;97502.88;;;19.20;100.00
52319;BME280;38258;51.148;14.068;2022-08-19T01:42:41;97506.72;;;19.28;100.00
52319;BME280;38258;51.148;14.068;2022-08-19T01:45:09;97510.59;;;19.24;100.00
52319;BME280;38258;51.148;14.068;2022-08-19T01:47:36;97511.06;;;19.29;100.00
52319;BME280;38258;51.148;14.068;2022-08-19T01:50:05;97513.69;;;19.29;100.00
52319;BME280;38258;51.148;14.068;2022-08-19T01:52:34;97504.22;;;19.26;100.00
52319;BME280;38258;51.148;14.068;2022-08-19T01:55:01;97514.19;;;19.23;100.00
52319;BME280;38258;51.148;14.068;2022-08-19T01:57:29;97508.91;;;19.23;100.00
52319;BME280;38258;51.148;14.068;2022-08-19T01:59:56;97516.75;;;19.24;100.00
52319;BME280;38258;51.148;14.068;2022-08-19T02:02:23;97520.56;;;19.20;100.00
52319;BME280;38258;51.148;14.068;2022-08-19T02:04:50;97514.19;;;19.23;100.00
52319;BME280;38258;51.148;14.068;2022-08-19T02:07:19;97516.00;;;19.33;100.00
52319;BME280;38258;51.148;14.068;2022-08-19T02:09:47;97514.66;;;19.28;100.00
52319;BME280;38258;51.148;14.068;2022-08-19T02:12:14;97513.22;;;19.24;100.00
52319;BME280;38258;51.148;14.068;2022-08-19T02:14:43;97503.34;;;19.26;100.00
52319;BME280;38258;51.148;14.068;2022-08-19T02:17:09;97506.00;;;19.26;100.00
52319;BME280;38258;51.148;14.068;2022-08-19T02:19:36;97513.34;;;19.22;100.00
52319;BME280;38258;51.148;14.068;2022-08-19T02:22:03;97516.00;;;19.22;100.00
52319;BME280;38258;51.148;14.068;2022-08-19T02:24:30;97519.50;;;19.23;100.00
52319;BME280;38258;51.148;14.068;2022-08-19T02:26:57;97533.22;;;19.28;100.00
52319;BME280;38258;51.148;14.068;2022-08-19T02:29:24;97530.09;;;19.23;100.00
52319;BME280;38258;51.148;14.068;2022-08-19T02:31:52;97531.09;;;19.33;100.00
52319;BME280;38258;51.148;14.068;2022-08-19T02:34:19;97530.84;;;19.36;100.00
52319;BME280;38258;51.148;14.068;2022-08-19T02:36:46;97532.53;;;19.37;100.00
52319;BME280;38258;51.148;14.068;2022-08-19T02:39:13;97520.94;;;19.27;100.00
52319;BME280;38258;51.148;14.068;2022-08-19T02:41:38;97511.78;;;19.08;100.00
52319;BME280;38258;51.148;14.068;2022-08-19T02:44:06;97512.44;;;18.99;100.00
52319;BME280;38258;51.148;14.068;2022-08-19T02:46:33;97502.09;;;18.96;100.00
52319;BME280;38258;51.148;14.068;2022-08-19T02:49:06;97495.00;;;18.96;100.00
52319;BME280;38258;51.148;14.068;2022-08-19T02:51:35;97506.00;;;19.03;100.00
52319;BME280;38258;51.148;14.068;2022-08-19T02:54:03;97500.41;;;18.94;100.00
52319;BME280;38258;51.148;14.068;2022-08-19T02:56:30;97491.25;;;18.99;100.00
52319;BME280;38258;51.148;14.068;2022-08-19T02:58:57;97506.28;;;18.87;100.00
52319;BME280;38258;51.148;14.068;2022-08-19T03:01:27;97504.34;;;18.77;100.00
52319;BME280;38258;51.148;14.068;2022-08-19T03:03:55;97514.09;;;18.77;100.00
52319;BME280;38258;51.148;14.068;2022-08-19T03:06:24;97519.13;;;18.69;100.00
52319;BME280;38258;51.148;14.068;2022-08-19T03:08:51;97527.34;;;18.77;100.00
52319;BME280;38258;51.148;14.068;2022-08-19T03:11:20;97522.78;;;18.79;100.00
52319;BME280;38258;51.148;14.068;2022-08-19T03:13:47;97522.41;;;18.72;100.00
52319;BME280;38258;51.148;14.068;2022-08-19T03:16:16;97518.41;;;18.67;100.00
52319;BME280;38258;51.148;14.068;2022-08-19T03:18:44;97528.16;;;18.66;100.00
52319;BME280;38258;51.148;14.068;2022-08-19T03:21:15;97514.47;;;18.84;100.00
52319;BME280;38258;51.148;14.068;2022-08-19T03:23:43;97519.16;;;18.80;100.00
52319;BME280;38258;51.148;14.068;2022-08-19T03:26:10;97515.09;;;18.87;100.00
52319;BME280;38258;51.148;14.068;2022-08-19T03:28:37;97520.50;;;18.86;100.00
52319;BME280;38258;51.148;14.068;2022-08-19T03:31:06;97514.00;;;18.90;100.00
52319;BME280;38258;51.148;14.068;2022-08-19T03:33:34;97520.03;;;18.92;100.00
52319;BME280;38258;51.148;14.068;2022-08-19T03:36:07;97525.47;;;18.90;100.00
52319;BME280;38258;51.148;14.068;2022-08-19T03:38:36;97540.44;;;19.03;100.00
52319;BME280;38258;51.148;14.068;2022-08-19T03:41:06;97547.63;;;18.89;100.00
52319;BME280;38258;51.148;14.068;2022-08-19T03:43:35;97550.81;;;19.06;100.00
52319;BME280;38258;51.148;14.068;2022-08-19T03:46:03;97542.56;;;18.98;100.00
52319;BME280;38258;51.148;14.068;2022-08-19T03:48:31;97534.28;;;19.02;100.00
52319;BME280;38258;51.148;14.068;2022-08-19T03:50:59;97538.16;;;19.10;100.00
52319;BME280;38258;51.148;14.068;2022-08-19T03:53:27;97536.50;;;19.09;100.00
52319;BME280;38258;51.148;14.068;2022-08-19T03:55:55;97530.56;;;19.05;100.00
52319;BME280;38258;51.148;14.068;2022-08-19T03:58:25;97530.69;;;19.03;100.00
52319;BME280;38258;51.148;14.068;2022-08-19T04:00:53;97537.81;;;19.03;100.00
52319;BME280;38258;51.148;14.068;2022-08-19T04:03:20;97543.56;;;19.08;100.00
52319;BME280;38258;51.148;14.068;2022-08-19T04:05:47;97541.53;;;19.12;100.00
52319;BME280;38258;51.148;14.068;2022-08-19T04:08:21;97545.50;;;19.06;100.00
52319;BME280;38258;51.148;14.068;2022-08-19T04:11:06;97544.91;;;19.14;100.00
52319;BME280;38258;51.148;14.068;2022-08-19T04:13:35;97549.59;;;19.10;100.00
52319;BME280;38258;51.148;14.068;2022-08-19T04:16:02;97552.16;;;19.12;100.00
52319;BME280;38258;51.148;14.068;2022-08-19T04:18:29;97553.31;;;19.07;100.00
52319;BME280;38258;51.148;14.068;2022-08-19T04:20:56;97548.97;;;19.06;100.00
52319;BME280;38258;51.148;14.068;2022-08-19T04:23:23;97552.25;;;19.10;100.00
52319;BME280;38258;51.148;14.068;2022-08-19T04:25:50;97542.25;;;19.02;100.00
52319;BME280;38258;51.148;14.068;2022-08-19T04:28:17;97539.84;;;19.11;100.00
52319;BME280;38258;51.148;14.068;2022-08-19T04:30:46;97529.25;;;19.11;100.00
52319;BME280;38258;51.148;14.068;2022-08-19T04:33:15;97536.97;;;19.14;100.00
52319;BME280;38258;51.148;14.068;2022-08-19T04:35:44;97528.53;;;19.09;100.00
52319;BME280;38258;51.148;14.068;2022-08-19T04:38:12;97540.69;;;19.11;100.00
52319;BME280;38258;51.148;14.068;2022-08-19T04:40:40;97532.88;;;19.10;100.00
52319;BME280;38258;51.148;14.068;2022-08-19T04:43:24;97538.88;;;19.00;100.00
52319;BME280;38258;51.148;14.068;2022-08-19T04:45:52;97530.81;;;19.02;100.00
52319;BME280;38258;51.148;14.068;2022-08-19T04:48:19;97535.63;;;19.08;100.00
52319;BME280;38258;51.148;14.068;2022-08-19T04:50:51;97540.44;;;19.03;100.00
52319;BME280;38258;51.148;14.068;2022-08-19T04:53:23;97535.53;;;19.10;100.00
52319;BME280;38258;51.148;14.068;2022-08-19T04:55:50;97539.13;;;19.09;100.00
52319;BME280;38258;51.148;14.068;2022-08-19T04:58:17;97533.94;;;19.07;100.00
52319;BME280;38258;51.148;14.068;2022-08-19T05:00:44;97544.91;;;19.14;100.00
52319;BME280;38258;51.148;14.068;2022-08-19T05:03:12;97540.34;;;19.16;100.00
52319;BME280;38258;51.148;14.068;2022-08-19T05:05:43;97545.63;;;19.16;100.00
52319;BME280;38258;51.148;14.068;2022-08-19T05:08:10;97536.84;;;19.15;100.00
52319;BME280;38258;51.148;14.068;2022-08-19T05:10:37;97540.69;;;19.11;100.00
52319;BME280;38258;51.148;14.068;2022-08-19T05:13:05;97547.19;;;19.07;100.00
52319;BME280;38258;51.148;14.068;2022-08-19T05:15:34;97554.66;;;19.02;100.00
52319;BME280;38258;51.148;14.068;2022-08-19T05:18:01;97555.94;;;18.96;100.00
52319;BME280;38258;51.148;14.068;2022-08-19T05:20:46;97562.94;;;18.97;100.00
52319;BME280;38258;51.148;14.068;2022-08-19T05:23:31;97570.94;;;18.84;100.00
52319;BME280;38258;51.148;14.068;2022-08-19T05:25:57;97575.41;;;18.84;100.00
52319;BME280;38258;51.148;14.068;2022-08-19T05:28:24;97577.22;;;18.83;100.00
52319;BME280;38258;51.148;14.068;2022-08-19T05:30:51;97588.28;;;18.77;100.00
52319;BME280;38258;51.148;14.068;2022-08-19T05:33:21;97585.25;;;18.70;100.00
52319;BME280;38258;51.148;14.068;2022-08-19T05:35:51;97589.81;;;18.68;100.00
52319;BME280;38258;51.148;14.068;2022-08-19T05:38:18;97591.72;;;18.66;100.00
52319;BME280;38258;51.148;14.068;2022-08-19T05:40:45;97589.28;;;18.63;100.00
52319;BME280;38258;51.148;14.068;2022-08-19T05:43:14;97580.91;;;18.69;100.00
52319;BME280;38258;51.148;14.068;2022-08-19T05:45:43;97588.28;;;18.77;100.00
52319;BME280;38258;51.148;14.068;2022-08-19T05:48:11;97595.88;;;18.82;100.00
52319;BME280;38258;51.148;14.068;2022-08-19T05:50:38;97601.19;;;18.82;100.00
52319;BME280;38258;51.148;14.068;2022-08-19T05:53:07;97602.81;;;18.71;100.00
52319;BME280;38258;51.148;14.068;2022-08-19T05:55:35;97611.25;;;18.76;100.00
52319;BME280;38258;51.148;14.068;2022-08-19T05:58:03;97619.66;;;18.70;100.00
52319;BME280;38258;51.148;14.068;2022-08-19T06:00:33;97625.59;;;18.74;100.00
52319;BME280;38258;51.148;14.068;2022-08-19T06:02:59;97633.88;;;18.69;100.00
52319;BME280;38258;51.148;14.068;2022-08-19T06:05:28;97633.09;;;18.56;100.00
52319;BME280;38258;51.148;14.068;2022-08-19T06:07:56;97643.78;;;18.54;100.00
52319;BME280;38258;51.148;14.068;2022-08-19T06:10:25;97651.97;;;18.51;100.00
52319;BME280;38258;51.148;14.068;2022-08-19T06:12:52;97654.59;;;18.51;100.00
52319;BME280;38258;51.148;14.068;2022-08-19T06:15:20;97665.69;;;18.56;100.00
52319;BME280;38258;51.148;14.068;2022-08-19T06:17:51;97670.38;;;18.53;100.00
52319;BME280;38258;51.148;14.068;2022-08-19T06:20:18;97676.66;;;18.51;100.00
52319;BME280;38258;51.148;14.068;2022-08-19T06:22:48;97683.97;;;18.48;100.00
52319;BME280;38258;51.148;14.068;2022-08-19T06:25:17;97688.22;;;18.37;100.00
52319;BME280;38258;51.148;14.068;2022-08-19T06:27:46;97697.03;;;18.38;100.00
52319;BME280;38258;51.148;14.068;2022-08-19T06:30:13;97700.16;;;18.43;100.00
52319;BME280;38258;51.148;14.068;2022-08-19T06:32:40;97701.91;;;18.31;100.00
52319;BME280;38258;51.148;14.068;2022-08-19T06:35:07;97702.72;;;18.32;100.00
52319;BME280;38258;51.148;14.068;2022-08-19T06:37:34;97705.06;;;18.36;100.00
52319;BME280;38258;51.148;14.068;2022-08-19T06:40:03;97697.13;;;18.36;100.00
52319;BME280;38258;51.148;14.068;2022-08-19T06:42:30;97710.13;;;18.40;100.00
52319;BME280;38258;51.148;14.068;2022-08-19T06:44:58;97716.81;;;18.32;100.00
52319;BME280;38258;51.148;14.068;2022-08-19T06:47:27;97713.09;;;18.35;100.00
52319;BME280;38258;51.148;14.068;2022-08-19T06:49:54;97716.19;;;18.29;100.00
52319;BME280;38258;51.148;14.068;2022-08-19T06:52:24;97723.81;;;18.20;100.00
52319;BME280;38258;51.148;14.068;2022-08-19T06:54:51;97723.41;;;18.27;100.00
52319;BME280;38258;51.148;14.068;2022-08-19T06:57:17;97721.25;;;18.32;100.00
52319;BME280;38258;51.148;14.068;2022-08-19T06:59:44;97739.91;;;18.30;100.00
52319;BME280;38258;51.148;14.068;2022-08-19T07:02:12;97735.69;;;18.28;100.00
52319;BME280;38258;51.148;14.068;2022-08-19T07:04:39;97736.22;;;18.20;100.00
52319;BME280;38258;51.148;14.068;2022-08-19T07:07:09;97751.16;;;18.21;100.00
52319;BME280;38258;51.148;14.068;2022-08-19T07:09:38;97738.66;;;18.23;100.00
52319;BME280;38258;51.148;14.068;2022-08-19T07:12:07;97746.38;;;18.26;100.00
52319;BME280;38258;51.148;14.068;2022-08-19T07:14:36;97745.84;;;18.21;100.00
52319;BME280;38258;51.148;14.068;2022-08-19T07:17:06;97739.50;;;18.23;100.00
52319;BME280;38258;51.148;14.068;2022-08-19T07:19:35;97711.78;;;18.03;100.00
52319;BME280;38258;51.148;14.068;2022-08-19T07:22:04;97727.97;;;18.25;100.00
52319;BME280;38258;51.148;14.068;2022-08-19T07:24:32;97738.66;;;18.23;100.00
52319;BME280;38258;51.148;14.068;2022-08-19T07:27:01;97738.41;;;18.26;100.00
52319;BME280;38258;51.148;14.068;2022-08-19T07:29:31;97737.59;;;18.26;100.00
52319;BME280;38258;51.148;14.068;2022-08-19T07:31:59;97745.84;;;18.21;100.00
52319;BME280;38258;51.148;14.068;2022-08-19T07:34:27;97747.72;;;18.32;100.00
52319;BME280;38258;51.148;14.068;2022-08-19T07:36:55;97760.69;;;18.23;100.00
52319;BME280;38258;51.148;14.068;2022-08-19T07:39:25;97756.63;;;18.31;100.00
52319;BME280;38258;51.148;14.068;2022-08-19T07:41:53;97757.69;;;18.28;100.00
52319;BME280;38258;51.148;14.068;2022-08-19T07:44:20;97754.22;;;18.28;100.00
52319;BME280;38258;51.148;14.068;2022-08-19T07:46:51;97752.75;;;18.23;100.00
52319;BME280;38258;51.148;14.068;2022-08-19T07:49:19;97761.63;;;18.22;100.00
52319;BME280;38258;51.148;14.068;2022-08-19T07:51:48;97754.63;;;18.21;100.00
52319;BME280;38258;51.148;14.068;2022-08-19T07:54:17;97751.38;;;18.18;100.00
52319;BME280;38258;51.148;14.068;2022-08-19T07:56:44;97763.31;;;18.23;100.00
52319;BME280;38258;51.148;14.068;2022-08-19T07:59:11;97759.28;;;18.31;100.00
52319;BME280;38258;51.148;14.068;2022-08-19T08:01:38;97761.72;;;18.34;100.00
52319;BME280;38258;51.148;14.068;2022-08-19T08:04:06;97772.72;;;18.28;100.00
52319;BME280;38258;51.148;14.068;2022-08-19T08:06:51;97764.69;;;18.29;100.00
52319;BME280;38258;51.148;14.068;2022-08-19T08:09:39;97763.84;;;18.29;100.00
52319;BME280;38258;51.148;14.068;2022-08-19T08:12:10;97768.38;;;18.40;100.00
52319;BME280;38258;51.148;14.068;2022-08-19T08:14:39;97767.63;;;18.37;100.00
52319;BME280;38258;51.148;14.068;2022-08-19T08:17:06;97776.84;;;18.45;100.00
52319;BME280;38258;51.148;14.068;2022-08-19T08:19:34;97782.56;;;18.51;100.00
52319;BME280;38258;51.148;14.068;2022-08-19T08:22:02;97788.19;;;18.47;100.00
52319;BME280;38258;51.148;14.068;2022-08-19T08:24:31;97779.25;;;18.61;100.00
52319;BME280;38258;51.148;14.068;2022-08-19T08:27:00;97784.53;;;18.61;100.00
52319;BME280;38258;51.148;14.068;2022-08-19T08:29:29;97782.22;;;18.56;100.00
52319;BME280;38258;51.148;14.068;2022-08-19T08:31:56;97787.19;;;18.61;100.00
52319;BME280;38258;51.148;14.068;2022-08-19T08:34:24;97789.97;;;18.59;100.00
52319;BME280;38258;51.148;14.068;2022-08-19T08:36:50;97797.59;;;18.51;100.00
52319;BME280;38258;51.148;14.068;2022-08-19T08:39:19;97804.06;;;18.47;100.00
52319;BME280;38258;51.148;14.068;2022-08-19T08:41:53;97788.50;;;18.42;100.00
52319;BME280;38258;51.148;14.068;2022-08-19T08:44:31;97788.81;;;18.37;100.00
52319;BME280;38258;51.148;14.068;2022-08-19T08:47:09;97806.72;;;18.47;100.00
52319;BME280;38258;51.148;14.068;2022-08-19T08:49:48;97809.78;;;18.54;100.00
52319;BME280;38258;51.148;14.068;2022-08-19T08:52:21;97819.22;;;18.45;100.00
52319;BME280;38258;51.148;14.068;2022-08-19T08:54:50;97818.25;;;18.33;100.00
52319;BME280;38258;51.148;14.068;2022-08-19T08:57:22;97810.94;;;18.36;100.00
52319;BME280;38258;51.148;14.068;2022-08-19T08:59:54;97804.47;;;18.41;100.00
52319;BME280;38258;51.148;14.068;2022-08-19T09:02:23;97802.50;;;18.31;100.00
52319;BME280;38258;51.148;14.068;2022-08-19T09:04:49;97806.38;;;18.39;100.00
52319;BME280;38258;51.148;14.068;2022-08-19T09:07:31;97806.38;;;18.39;100.00
52319;BME280;38258;51.148;14.068;2022-08-19T09:10:10;97805.66;;;18.36;100.00
52319;BME280;38258;51.148;14.068;2022-08-19T09:12:49;97813.28;;;18.41;100.00
52319;BME280;38258;51.148;14.068;2022-08-19T09:15:25;97801.00;;;18.40;100.00
52319;BME280;38258;51.148;14.068;2022-08-19T09:17:59;97792.19;;;18.53;100.00
52319;BME280;38258;51.148;14.068;2022-08-19T09:20:27;97809.22;;;18.61;100.00
52319;BME280;38258;51.148;14.068;2022-08-19T09:22:54;97811.97;;;18.73;100.00
52319;BME280;38258;51.148;14.068;2022-08-19T09:25:22;97799.00;;;18.81;100.00
52319;BME280;38258;51.148;14.068;2022-08-19T09:27:50;97794.34;;;18.85;100.00
52319;BME280;38258;51.148;14.068;2022-08-19T09:30:21;97782.72;;;18.99;100.00
52319;BME280;38258;51.148;14.068;2022-08-19T09:32:49;97785.31;;;19.25;100.00
52319;BME280;38258;51.148;14.068;2022-08-19T09:35:18;97792.38;;;19.37;100.00
52319;BME280;38258;51.148;14.068;2022-08-19T09:37:48;97785.28;;;19.73;100.00
52319;BME280;38258;51.148;14.068;2022-08-19T09:40:15;97786.81;;;19.76;100.00
52319;BME280;38258;51.148;14.068;2022-08-19T09:42:43;97769.13;;;19.76;100.00
52319;BME280;38258;51.148;14.068;2022-08-19T09:45:12;97749.50;;;19.55;100.00
52319;BME280;38258;51.148;14.068;2022-08-19T09:47:40;97759.53;;;19.62;100.00
52319;BME280;38258;51.148;14.068;2022-08-19T09:50:09;97778.09;;;19.51;100.00
52319;BME280;38258;51.148;14.068;2022-08-19T09:52:37;97776.28;;;19.52;100.00
52319;BME280;38258;51.148;14.068;2022-08-19T09:55:05;97768.50;;;19.37;100.00
52319;BME280;38258;51.148;14.068;2022-08-19T09:57:32;97780.69;;;19.40;100.00
52319;BME280;38258;51.148;14.068;2022-08-19T09:59:59;97791.16;;;19.30;100.00
52319;BME280;38258;51.148;14.068;2022-08-19T10:02:26;97800.59;;;19.21;100.00
52319;BME280;38258;51.148;14.068;2022-08-19T10:04:54;97798.56;;;19.25;100.00
52319;BME280;38258;51.148;14.068;2022-08-19T10:07:39;97808.16;;;19.14;100.00
52319;BME280;38258;51.148;14.068;2022-08-19T10:10:07;97825.97;;;19.12;100.00
52319;BME280;38258;51.148;14.068;2022-08-19T10:12:35;97813.34;;;19.16;100.00
52319;BME280;38258;51.148;14.068;2022-08-19T10:15:02;97777.78;;;18.94;100.00
52319;BME280;38258;51.148;14.068;2022-08-19T10:17:29;97809.47;;;19.09;100.00
52319;BME280;38258;51.148;14.068;2022-08-19T10:20:00;97800.88;;;19.05;100.00
52319;BME280;38258;51.148;14.068;2022-08-19T10:22:27;97806.91;;;19.07;100.00
52319;BME280;38258;51.148;14.068;2022-08-19T10:24:54;97803.31;;;19.08;100.00
52319;BME280;38258;51.148;14.068;2022-08-19T10:27:22;97789.13;;;18.96;100.00
52319;BME280;38258;51.148;14.068;2022-08-19T10:29:49;97817.53;;;19.07;100.00
52319;BME280;38258;51.148;14.068;2022-08-19T10:32:16;97820.50;;;19.02;100.00
52319;BME280;38258;51.148;14.068;2022-08-19T10:34:43;97828.03;;;19.09;100.00
52319;BME280;38258;51.148;14.068;2022-08-19T10:37:11;97831.50;;;19.09;100.00
52319;BME280;38258;51.148;14.068;2022-08-19T10:39:38;97835.34;;;19.29;100.00
52319;BME280;38258;51.148;14.068;2022-08-19T10:42:05;97846.03;;;19.41;100.00
52319;BME280;38258;51.148;14.068;2022-08-19T10:44:33;97852.22;;;19.53;100.00
52319;BME280;38258;51.148;14.068;2022-08-19T10:47:01;97850.44;;;19.53;100.00
52319;BME280;38258;51.148;14.068;2022-08-19T10:49:28;97835.88;;;19.59;100.00
52319;BME280;38258;51.148;14.068;2022-08-19T10:51:55;97838.69;;;19.69;100.00
52319;BME280;38258;51.148;14.068;2022-08-19T10:54:41;97843.28;;;20.02;100.00
52319;BME280;38258;51.148;14.068;2022-08-19T10:57:25;97848.38;;;20.17;100.00
52319;BME280;38258;51.148;14.068;2022-08-19T10:59:56;97851.91;;;20.40;100.00
52319;BME280;38258;51.148;14.068;2022-08-19T11:02:23;97854.66;;;20.27;100.00
52319;BME280;38258;51.148;14.068;2022-08-19T11:04:51;97854.44;;;20.42;100.00
52319;BME280;38258;51.148;14.068;2022-08-19T11:07:17;97858.53;;;20.34;100.00
52319;BME280;38258;51.148;14.068;2022-08-19T11:09:45;97865.03;;;20.19;100.00
52319;BME280;38258;51.148;14.068;2022-08-19T11:12:13;97878.31;;;20.19;100.00
52319;BME280;38258;51.148;14.068;2022-08-19T11:14:40;97879.38;;;20.16;100.00
52319;BME280;38258;51.148;14.068;2022-08-19T11:17:07;97852.66;;;19.95;100.00
52319;BME280;38258;51.148;14.068;2022-08-19T11:19:34;97872.41;;;20.27;100.00
52319;BME280;38258;51.148;14.068;2022-08-19T11:22:01;97870.75;;;20.37;100.00
52319;BME280;38258;51.148;14.068;2022-08-19T11:24:29;97873.97;;;20.18;100.00
52319;BME280;38258;51.148;14.068;2022-08-19T11:27:02;97874.75;;;20.07;100.00
52319;BME280;38258;51.148;14.068;2022-08-19T11:29:30;97880.59;;;20.12;100.00
52319;BME280;38258;51.148;14.068;2022-08-19T11:31:57;97888.28;;;20.04;100.00
52319;BME280;38258;51.148;14.068;2022-08-19T11:34:26;97886.75;;;20.24;100.00
52319;BME280;38258;51.148;14.068;2022-08-19T11:36:55;97889.31;;;20.26;100.00
52319;BME280;38258;51.148;14.068;2022-08-19T11:39:24;97896.16;;;20.28;100.00
52319;BME280;38258;51.148;14.068;2022-08-19T11:41:51;97891.69;;;20.17;100.00
52319;BME280;38258;51.148;14.068;2022-08-19T11:44:19;97889.38;;;20.13;100.00
52319;BME280;38258;51.148;14.068;2022-08-19T11:46:46;97887.00;;;20.21;100.00
52319;BME280;38258;51.148;14.068;2022-08-19T11:49:14;97887.28;;;20.41;100.00
52319;BME280;38258;51.148;14.068;2022-08-19T11:51:41;97876.06;;;20.37;100.00
52319;BME280;38258;51.148;14.068;2022-08-19T11:54:09;97888.44;;;20.84;100.00
52319;BME280;38258;51.148;14.068;2022-08-19T11:56:38;97897.94;;;20.75;100.00
52319;BME280;38258;51.148;14.068;2022-08-19T11:59:05;97880.75;;;20.33;100.00
52319;BME280;38258;51.148;14.068;2022-08-19T12:01:34;97900.19;;;20.45;100.00
52319;BME280;38258;51.148;14.068;2022-08-19T12:04:01;97891.63;;;20.53;100.00
52319;BME280;38258;51.148;14.068;2022-08-19T12:06:31;97878.22;;;20.43;100.00
52319;BME280;38258;51.148;14.068;2022-08-19T12:09:02;97893.84;;;20.59;100.00
52319;BME280;38258;51.148;14.068;2022-08-19T12:11:29;97886.47;;;20.52;100.00
52319;BME280;38258;51.148;14.068;2022-08-19T12:13:56;97888.75;;;20.45;100.00
52319;BME280;38258;51.148;14.068;2022-08-19T12:16:25;97888.72;;;20.33;100.00
52319;BME280;38258;51.148;14.068;2022-08-19T12:18:55;97895.88;;;20.09;100.00
52319;BME280;38258;51.148;14.068;2022-08-19T12:21:26;97894.81;;;20.11;100.00
52319;BME280;38258;51.148;14.068;2022-08-19T12:23:55;97901.72;;;20.25;100.00
52319;BME280;38258;51.148;14.068;2022-08-19T12:26:23;97896.56;;;20.24;100.00
52319;BME280;38258;51.148;14.068;2022-08-19T12:28:51;97897.19;;;20.50;100.00
52319;BME280;38258;51.148;14.068;2022-08-19T12:31:18;97905.09;;;20.86;100.00
52319;BME280;38258;51.148;14.068;2022-08-19T12:33:47;97906.28;;;21.16;100.00
52319;BME280;38258;51.148;14.068;2022-08-19T12:36:16;97894.19;;;20.77;100.00
52319;BME280;38258;51.148;14.068;2022-08-19T12:38:43;97897.53;;;21.37;100.00
52319;BME280;38258;51.148;14.068;2022-08-19T12:41:12;97890.16;;;21.40;100.00
52319;BME280;38258;51.148;14.068;2022-08-19T12:43:40;97901.97;;;22.03;100.00
52319;BME280;38258;51.148;14.068;2022-08-19T12:46:09;97897.16;;;21.97;100.00
52319;BME280;38258;51.148;14.068;2022-08-19T12:48:36;97905.13;;;21.64;100.00